Etusivu
METAR-TAF:

METAR-TAF

Lentoasemat :

Spencer Municipal Airport

Spencer, Iowa, Yhdysvallat

Leveyspiiri: 43-09-56N, Pituuspiiri: 095-12-10W, korkeus merenpinnasta: 408 m

Tämänhetkinen sää

Tämä raportti tehtiin 47 minuuttia sitten, kello 11.53 UTC
Tuuli 5 kn etelästä/lounaasta
Lämpötila -4°C
Kosteus 80%
Ilmanpaine 1025 hPa
Näkyvyys: 16.1 km
selkeää

METAR: KSPW 151153Z AUTO 20005KT 10SM CLR M04/M07 A3027 RMK AO2 SLP268 T10391067 11011 21044 53000

Aika: 06:40 (12:40 UTC)


TAF: puuttuu

Säähavainnot ja -ennusteet yli 4000 lentoasemalta (METAR- ja TAF-raportit).

Käytössä olevat sääasemat on merkitty karttaan keltaisilla ja punaisilla pisteillä.

Aseta hiiri pisteen päälle nähdäksesi sääaseman nimen.

Klikkaa sitten nähdäksesi säähavainnot ja -ennusteet.

Kartan vaihtaminen: klikkaa mustalla rastilla varustettuja vihreitä pisteitä, niin voit zoomata sisään; viivalla varustettua vihreää pistettä, niin voit zoomata ulos tai vihreitä nuolia, niin pääset viereisille kartoille.


METAR-TAF: